Time;durP1;ratioP1;P1;durP2;ratioP2;P2;SDS_P1;SDS_P2;PMS_P1;PMS_P2;Temp;Humidity;BMP_temperature;BMP_pressure;BME280_temperature;BME280_humidity;BME280_pressure;Samples;Min_cycle;Max_cycle;Signal;HPM_P1;HPM_P2
2022/06/07 00:02:25;;;;;;;12.75;9.60;;;18.80;99.90;;;;;;5010828;28;20037;-74
2022/06/07 00:04:55;;;;;;;14.98;8.85;;;18.80;99.90;;;;;;5030833;28;20589;-73
2022/06/07 00:07:22;;;;;;;12.55;8.98;;;18.80;99.90;;;;;;5018197;28;20032;-73
2022/06/07 00:09:48;;;;;;;12.95;8.80;;;18.80;99.90;;;;;;5034147;28;20028;-73
2022/06/07 00:12:14;;;;;;;15.68;9.32;;;18.80;99.90;;;;;;5026498;28;20038;-73
2022/06/07 00:14:40;;;;;;;16.73;10.68;;;18.70;99.90;;;;;;5011354;28;20021;-73
2022/06/07 00:17:06;;;;;;;13.73;9.50;;;18.60;99.90;;;;;;5031212;28;20033;-72
2022/06/07 00:19:33;;;;;;;15.38;9.60;;;18.60;99.90;;;;;;5033635;28;20030;-72
2022/06/07 00:21:59;;;;;;;14.73;9.65;;;18.60;99.90;;;;;;5017115;28;20029;-72
2022/06/07 00:24:25;;;;;;;18.17;10.32;;;18.50;99.90;;;;;;5036359;28;20018;-73
2022/06/07 00:26:52;;;;;;;13.60;10.13;;;18.50;99.90;;;;;;5037226;28;20398;-73
2022/06/07 00:29:21;;;;;;;15.95;10.18;;;18.50;99.90;;;;;;5000940;28;20057;-73
2022/06/07 00:31:47;;;;;;;12.05;10.00;;;18.50;99.90;;;;;;5019513;28;20038;-73
2022/06/07 00:34:14;;;;;;;21.25;10.35;;;18.50;99.90;;;;;;5022772;28;20049;-73
2022/06/07 00:36:40;;;;;;;16.65;9.43;;;18.40;99.90;;;;;;5012370;28;20052;-73
2022/06/07 00:39:07;;;;;;;13.05;10.27;;;18.40;99.90;;;;;;5014319;28;20048;-73
2022/06/07 00:41:33;;;;;;;12.68;9.90;;;18.40;99.90;;;;;;5030529;28;20029;-72
2022/06/07 00:44:21;;;;;;;19.17;9.10;;;18.40;99.90;;;;;;5013023;28;20036;-73
2022/06/07 00:47:03;;;;;;;15.23;8.93;;;18.50;99.90;;;;;;5027951;28;20037;-72
2022/06/07 00:49:35;;;;;;;12.27;8.63;;;18.40;99.90;;;;;;5030156;28;20053;-72
2022/06/07 00:52:01;;;;;;;12.88;8.52;;;18.50;99.90;;;;;;5015349;28;20080;-73
2022/06/07 00:54:29;;;;;;;11.30;7.63;;;18.40;99.90;;;;;;5033403;28;20033;-73
2022/06/07 00:56:55;;;;;;;11.27;8.70;;;18.40;99.90;;;;;;5033042;28;20032;-72
2022/06/07 00:59:23;;;;;;;13.43;7.30;;;18.40;99.90;;;;;;5036340;28;20119;-72
2022/06/07 01:01:50;;;;;;;11.57;8.80;;;18.40;99.90;;;;;;5033329;28;20454;-72
2022/06/07 01:04:16;;;;;;;13.05;8.15;;;18.40;99.90;;;;;;5036719;28;20048;-71
2022/06/07 01:12:11;;;;;;;12.57;8.10;;;18.30;99.90;;;;;;5031563;28;20433;-72
2022/06/07 01:14:38;;;;;;;11.55;8.55;;;18.30;99.90;;;;;;5017079;28;20025;-72
2022/06/07 01:17:04;;;;;;;10.52;7.70;;;18.20;99.90;;;;;;5017470;28;20025;-72
2022/06/07 01:19:30;;;;;;;13.57;8.02;;;18.20;99.90;;;;;;5017223;28;20017;-72
2022/06/07 01:21:56;;;;;;;8.82;7.60;;;18.20;99.90;;;;;;5025631;28;20026;-71
2022/06/07 01:24:22;;;;;;;15.38;8.40;;;18.30;99.90;;;;;;5019160;28;20048;-73
2022/06/07 01:26:48;;;;;;;11.70;7.15;;;18.20;99.90;;;;;;5001660;28;20501;-72
2022/06/07 01:29:15;;;;;;;13.05;8.05;;;18.20;99.90;;;;;;5022702;28;20486;-72
2022/06/07 01:31:41;;;;;;;9.25;7.88;;;18.20;99.90;;;;;;5028281;28;20486;-72
2022/06/07 01:34:09;;;;;;;10.43;7.00;;;18.20;99.90;;;;;;5028513;28;20025;-71
2022/06/07 01:36:35;;;;;;;11.65;7.38;;;18.10;99.90;;;;;;5028740;28;20029;-72
2022/06/07 01:41:54;;;;;;;8.13;7.00;;;18.10;99.90;;;;;;5029235;28;20096;-72
2022/06/07 01:44:35;;;;;;;13.00;7.15;;;18.00;99.90;;;;;;5035000;28;20556;-72
2022/06/07 01:47:01;;;;;;;9.77;7.95;;;18.00;99.90;;;;;;5009752;28;20029;-73
2022/06/07 01:49:27;;;;;;;11.32;7.32;;;18.00;99.90;;;;;;5024583;28;20022;-72
2022/06/07 01:51:53;;;;;;;15.70;8.40;;;17.90;99.90;;;;;;5029896;28;20060;-73
2022/06/07 01:54:20;;;;;;;9.35;8.00;;;17.90;99.90;;;;;;5034518;28;20529;-72
2022/06/07 01:56:47;;;;;;;10.10;6.97;;;17.80;99.90;;;;;;5014684;28;20106;-72
2022/06/07 01:59:13;;;;;;;10.48;6.97;;;17.70;99.90;;;;;;5029409;28;20080;-72
2022/06/07 02:01:39;;;;;;;8.40;7.35;;;17.70;99.90;;;;;;5034234;28;20437;-72
2022/06/07 02:04:05;;;;;;;15.25;7.50;;;17.60;99.90;;;;;;5033671;28;20125;-72
2022/06/07 02:06:32;;;;;;;11.80;7.78;;;17.60;99.90;;;;;;5019009;28;20029;-72
2022/06/07 02:08:58;;;;;;;14.00;6.85;;;17.60;99.90;;;;;;5040243;28;20441;-73
2022/06/07 02:11:26;;;;;;;9.30;6.50;;;17.60;99.90;;;;;;5035128;28;20108;-72
2022/06/07 02:13:53;;;;;;;11.48;6.90;;;17.60;99.90;;;;;;5025310;28;20018;-72
2022/06/07 02:16:20;;;;;;;11.43;7.32;;;17.60;99.90;;;;;;5039298;28;20084;-72
2022/06/07 02:18:47;;;;;;;14.55;7.30;;;17.60;99.90;;;;;;5027430;28;20030;-72
2022/06/07 02:21:14;;;;;;;11.07;6.13;;;17.60;99.90;;;;;;5004332;28;20109;-72
2022/06/07 02:23:40;;;;;;;8.57;6.82;;;17.60;99.90;;;;;;5032965;28;20100;-72
2022/06/07 02:26:17;;;;;;;10.20;7.47;;;17.60;99.90;;;;;;5008800;28;20548;-74
2022/06/07 02:28:48;;;;;;;8.15;6.68;;;17.60;99.90;;;;;;5025480;28;20108;-72
2022/06/07 02:31:16;;;;;;;9.95;6.60;;;17.70;99.90;;;;;;5028483;28;20513;-72
2022/06/07 02:33:43;;;;;;;14.32;6.45;;;17.70;99.90;;;;;;5028409;28;20030;-73
2022/06/07 02:36:10;;;;;;;9.20;6.72;;;17.70;99.90;;;;;;5031562;28;20086;-72
2022/06/07 02:38:37;;;;;;;10.68;6.28;;;17.70;99.90;;;;;;5030269;28;20022;-72
2022/06/07 02:41:06;;;;;;;8.50;6.53;;;17.80;99.90;;;;;;5021170;28;20044;-72
2022/06/07 02:43:32;;;;;;;6.63;5.72;;;17.80;99.90;;;;;;5015265;28;20052;-73
2022/06/07 02:45:57;;;;;;;10.15;6.50;;;17.90;99.90;;;;;;5019495;28;20025;-72
2022/06/07 02:48:24;;;;;;;10.50;6.70;;;17.80;99.90;;;;;;5018970;28;20041;-72
2022/06/07 02:50:54;;;;;;;9.32;6.75;;;17.80;99.90;;;;;;5039098;28;20417;-72
2022/06/07 02:53:20;;;;;;;10.60;6.45;;;17.90;99.90;;;;;;5005339;28;20030;-72
2022/06/07 02:55:46;;;;;;;10.57;7.03;;;17.90;99.90;;;;;;5021265;28;20052;-72
2022/06/07 02:58:12;;;;;;;14.57;7.55;;;17.90;99.90;;;;;;5024229;28;20029;-72
2022/06/07 03:00:38;;;;;;;12.48;6.93;;;17.80;99.90;;;;;;5022946;28;20076;-73
2022/06/07 03:03:04;;;;;;;10.48;6.65;;;17.80;99.90;;;;;;5027150;28;20425;-72
2022/06/07 03:05:31;;;;;;;9.38;7.30;;;17.80;99.90;;;;;;5025817;28;20029;-72
2022/06/07 03:07:57;;;;;;;10.85;7.18;;;17.80;99.90;;;;;;5016414;28;20075;-72
2022/06/07 03:10:23;;;;;;;10.20;7.45;;;17.70;99.90;;;;;;5035321;28;20025;-73
2022/06/07 03:12:49;;;;;;;9.32;7.07;;;17.70;99.90;;;;;;5034390;28;20026;-72
2022/06/07 03:15:15;;;;;;;12.23;6.60;;;17.70;99.90;;;;;;5035124;28;20433;-72
2022/06/07 03:17:41;;;;;;;15.07;7.25;;;17.70;99.90;;;;;;5029925;28;20433;-71
2022/06/07 03:20:08;;;;;;;9.52;7.15;;;17.80;99.90;;;;;;5025252;28;20026;-72
2022/06/07 03:22:35;;;;;;;11.07;7.05;;;17.70;99.90;;;;;;5012194;28;20387;-72
2022/06/07 03:25:05;;;;;;;12.10;7.03;;;17.80;99.90;;;;;;5035080;28;20018;-73
2022/06/07 03:27:35;;;;;;;14.50;7.10;;;17.80;99.90;;;;;;5014589;28;20025;-72
2022/06/07 03:30:04;;;;;;;9.57;6.25;;;17.70;99.90;;;;;;5031948;28;20056;-72
2022/06/07 03:32:29;;;;;;;8.23;5.88;;;17.70;99.90;;;;;;5035546;28;20489;-72
2022/06/07 03:34:55;;;;;;;10.13;6.43;;;17.70;99.90;;;;;;5035933;28;20025;-72
2022/06/07 03:37:21;;;;;;;9.70;6.80;;;17.70;99.90;;;;;;5037973;28;20105;-72
2022/06/07 03:39:47;;;;;;;10.00;6.35;;;17.70;99.90;;;;;;5020015;28;20026;-72
2022/06/07 03:42:13;;;;;;;14.63;6.25;;;17.70;99.90;;;;;;5015281;28;20113;-73
2022/06/07 03:44:40;;;;;;;8.52;6.13;;;17.70;99.90;;;;;;5020471;28;20371;-73
2022/06/07 03:47:06;;;;;;;11.38;6.55;;;17.60;99.90;;;;;;5023899;28;20116;-73
2022/06/07 03:49:32;;;;;;;10.77;6.63;;;17.60;99.90;;;;;;5022445;28;20057;-73
2022/06/07 03:51:58;;;;;;;9.32;6.43;;;17.50;99.90;;;;;;5036750;28;20041;-73
2022/06/07 03:54:24;;;;;;;8.88;6.53;;;17.60;99.90;;;;;;5016733;28;20036;-73
2022/06/07 03:56:50;;;;;;;11.45;6.65;;;17.60;99.90;;;;;;5014501;28;20028;-73
2022/06/07 03:59:16;;;;;;;7.78;5.82;;;17.50;99.90;;;;;;5032776;28;20056;-72
2022/06/07 04:01:41;;;;;;;11.10;6.82;;;17.50;99.90;;;;;;5024847;28;20080;-73
2022/06/07 04:04:09;;;;;;;10.05;6.28;;;17.50;99.90;;;;;;5004078;28;20026;-73
2022/06/07 04:06:40;;;;;;;9.73;6.70;;;17.50;99.90;;;;;;5027166;28;20068;-73
2022/06/07 04:09:07;;;;;;;11.38;6.45;;;17.40;99.90;;;;;;5013301;28;20097;-73
2022/06/07 04:11:32;;;;;;;13.23;6.97;;;17.40;99.90;;;;;;5012823;28;20030;-73
2022/06/07 04:14:00;;;;;;;10.15;6.45;;;17.40;99.90;;;;;;5008378;28;20034;-72
2022/06/07 04:16:28;;;;;;;8.60;6.30;;;17.40;99.90;;;;;;5032380;28;20053;-72
2022/06/07 04:18:55;;;;;;;9.98;6.30;;;17.40;99.90;;;;;;5011990;28;20048;-73
2022/06/07 04:21:22;;;;;;;12.73;7.30;;;17.40;99.90;;;;;;5007267;28;20076;-72
2022/06/07 04:23:48;;;;;;;6.43;5.82;;;17.40;99.90;;;;;;5034873;28;20544;-72
2022/06/07 04:26:17;;;;;;;8.45;5.93;;;17.40;99.90;;;;;;5037442;28;20051;-73
2022/06/07 04:28:44;;;;;;;10.73;5.80;;;17.40;99.90;;;;;;5024228;28;20040;-73
2022/06/07 04:31:16;;;;;;;7.82;6.25;;;17.40;99.90;;;;;;5001238;28;20021;-73
2022/06/07 04:33:44;;;;;;;8.35;5.70;;;17.50;99.90;;;;;;5020981;28;20053;-73
2022/06/07 04:36:20;;;;;;;13.18;5.53;;;17.40;99.90;;;;;;5024364;28;20506;-73
2022/06/07 04:38:49;;;;;;;12.38;6.97;;;17.40;99.90;;;;;;5037019;28;20057;-72
2022/06/07 04:41:19;;;;;;;9.70;5.93;;;17.40;99.90;;;;;;5003466;28;20060;-72
2022/06/07 04:43:46;;;;;;;6.88;5.65;;;17.40;99.90;;;;;;5020990;28;20022;-73
2022/06/07 04:46:14;;;;;;;6.90;5.22;;;17.40;99.90;;;;;;5031156;28;20358;-73
2022/06/07 04:48:41;;;;;;;8.70;5.13;;;17.40;99.90;;;;;;5013514;28;20522;-73
2022/06/07 04:51:14;;;;;;;10.60;5.68;;;17.40;99.90;;;;;;5033059;28;20382;-73
2022/06/07 04:53:39;;;;;;;13.55;5.80;;;17.40;99.90;;;;;;5018105;28;20026;-72
2022/06/07 04:56:15;;;;;;;8.60;5.10;;;17.40;99.90;;;;;;5035948;28;20097;-73
2022/06/07 04:58:41;;;;;;;9.63;5.32;;;17.50;99.90;;;;;;5006000;28;20029;-73
2022/06/07 05:01:12;;;;;;;11.98;5.05;;;17.50;99.90;;;;;;5006782;28;20545;-73
2022/06/07 05:03:38;;;;;;;9.25;5.05;;;17.50;99.90;;;;;;5019081;28;20112;-73
2022/06/07 05:06:22;;;;;;;6.55;4.90;;;17.50;99.90;;;;;;5020533;28;20045;-73
2022/06/07 05:08:51;;;;;;;5.85;4.57;;;17.60;99.90;;;;;;5021238;28;20021;-72
2022/06/07 05:11:17;;;;;;;8.65;4.97;;;17.60;99.90;;;;;;5033364;28;20034;-73
2022/06/07 05:13:44;;;;;;;7.72;4.68;;;17.60;99.90;;;;;;5024891;28;20022;-73
2022/06/07 05:16:10;;;;;;;7.07;5.32;;;17.60;99.90;;;;;;5027603;28;20029;-72
2022/06/07 05:18:37;;;;;;;6.45;4.80;;;17.50;99.90;;;;;;5028983;28;20028;-72
2022/06/07 05:21:07;;;;;;;7.22;4.72;;;17.60;99.90;;;;;;5030146;28;20041;-73
2022/06/07 05:23:33;;;;;;;10.10;5.07;;;17.60;99.90;;;;;;5032065;28;20030;-73
2022/06/07 05:26:10;;;;;;;10.95;4.63;;;17.60;99.90;;;;;;5032905;28;20096;-73
2022/06/07 05:28:40;;;;;;;5.70;4.55;;;17.70;99.90;;;;;;5016496;28;20033;-73
2022/06/07 05:31:05;;;;;;;10.80;4.55;;;17.80;99.90;;;;;;5024001;28;20014;-73
2022/06/07 05:33:31;;;;;;;6.20;3.85;;;17.80;99.90;;;;;;5024069;28;20030;-73
2022/06/07 05:35:58;;;;;;;5.70;4.70;;;17.90;99.90;;;;;;5018739;28;20018;-73
2022/06/07 05:38:25;;;;;;;5.57;4.40;;;17.90;99.90;;;;;;5033095;28;20025;-72
2022/06/07 05:40:52;;;;;;;6.70;4.43;;;18.00;99.90;;;;;;5033374;28;20081;-73
2022/06/07 05:43:18;;;;;;;9.43;4.80;;;18.00;99.90;;;;;;5015612;28;20022;-72
2022/06/07 05:45:51;;;;;;;5.90;4.63;;;18.00;99.90;;;;;;5036448;28;20018;-73
2022/06/07 05:48:17;;;;;;;8.68;4.70;;;18.10;99.90;;;;;;5036204;28;20045;-72
2022/06/07 05:50:44;;;;;;;6.80;4.00;;;18.10;99.90;;;;;;5005733;28;21159;-73
2022/06/07 05:53:11;;;;;;;7.65;4.07;;;18.10;99.90;;;;;;5015453;28;20490;-73
2022/06/07 05:55:37;;;;;;;6.22;3.83;;;18.10;99.90;;;;;;5027358;28;20486;-73
2022/06/07 05:58:03;;;;;;;6.45;5.18;;;18.10;99.90;;;;;;5018664;28;20030;-72
2022/06/07 06:00:30;;;;;;;5.72;4.18;;;18.10;99.90;;;;;;5025719;28;20053;-73
2022/06/07 06:02:56;;;;;;;6.20;4.10;;;18.10;99.90;;;;;;5008925;28;20112;-72
2022/06/07 06:05:22;;;;;;;6.00;4.40;;;18.10;99.90;;;;;;5021340;28;20064;-73
2022/06/07 06:10:33;;;;;;;6.95;3.92;;;18.10;99.90;;;;;;5022880;28;20033;-73
2022/06/07 06:12:59;;;;;;;5.28;4.25;;;18.10;99.90;;;;;;5028305;28;20393;-72
2022/06/07 06:15:25;;;;;;;5.47;3.50;;;18.10;99.90;;;;;;5025831;28;20022;-73
2022/06/07 06:17:50;;;;;;;4.38;3.47;;;18.10;99.90;;;;;;5032432;28;20033;-73
2022/06/07 06:20:16;;;;;;;5.82;4.07;;;18.10;99.90;;;;;;5036106;28;20029;-73
2022/06/07 06:22:42;;;;;;;5.22;4.10;;;18.10;99.90;;;;;;5014774;28;20048;-73
2022/06/07 06:25:09;;;;;;;4.50;3.47;;;18.10;99.90;;;;;;5015162;28;20035;-73
2022/06/07 06:27:35;;;;;;;6.35;3.72;;;18.20;99.90;;;;;;5036090;28;20053;-73
2022/06/07 06:30:01;;;;;;;9.45;3.90;;;18.20;99.90;;;;;;5026520;28;20032;-72
2022/06/07 06:32:27;;;;;;;8.82;3.72;;;18.20;99.90;;;;;;5032624;28;20025;-73
2022/06/07 06:34:53;;;;;;;5.55;3.90;;;18.20;99.90;;;;;;5015942;28;20048;-72
2022/06/07 06:37:19;;;;;;;7.95;3.70;;;18.30;99.90;;;;;;5035388;28;20013;-73
2022/06/07 06:39:45;;;;;;;4.60;3.53;;;18.40;99.90;;;;;;5034068;28;20030;-72
2022/06/07 06:42:12;;;;;;;4.95;3.67;;;18.50;99.90;;;;;;5017806;28;20045;-74
2022/06/07 06:44:37;;;;;;;9.25;3.50;;;18.60;99.90;;;;;;5019487;28;20025;-73
2022/06/07 06:47:04;;;;;;;8.18;3.70;;;18.80;99.90;;;;;;5037306;28;20013;-73
2022/06/07 06:49:32;;;;;;;5.68;3.45;;;19.00;99.90;;;;;;5027159;28;20089;-73
2022/06/07 06:51:59;;;;;;;7.85;4.85;;;19.10;99.90;;;;;;5036253;28;20075;-72
2022/06/07 06:54:26;;;;;;;4.35;3.10;;;19.10;99.90;;;;;;5017865;28;20033;-73
2022/06/07 06:56:52;;;;;;;8.18;2.88;;;19.20;99.90;;;;;;5036746;28;20029;-73
2022/06/07 06:59:18;;;;;;;5.60;3.53;;;19.30;99.90;;;;;;5019552;28;20121;-73
2022/06/07 07:01:45;;;;;;;5.07;2.83;;;19.30;99.90;;;;;;5014218;28;20481;-73
2022/06/07 07:04:15;;;;;;;5.45;3.17;;;19.40;99.90;;;;;;5027121;28;20021;-73
2022/06/07 07:06:41;;;;;;;4.72;2.67;;;19.40;99.90;;;;;;5026060;28;20013;-73
2022/06/07 07:09:08;;;;;;;4.55;3.05;;;19.40;99.90;;;;;;5034757;28;20101;-73
2022/06/07 07:11:41;;;;;;;5.28;2.35;;;19.40;99.90;;;;;;5008627;28;20108;-73
2022/06/07 07:14:08;;;;;;;6.45;2.75;;;19.50;99.90;;;;;;5034311;28;20033;-74
2022/06/07 07:16:37;;;;;;;4.13;2.35;;;19.60;99.90;;;;;;5037961;28;20036;-73
2022/06/07 07:19:04;;;;;;;3.03;2.10;;;19.70;99.90;;;;;;5018880;28;20029;-74
2022/06/07 07:21:33;;;;;;;5.55;2.72;;;19.70;99.90;;;;;;5019628;28;20543;-73
2022/06/07 07:24:04;;;;;;;3.38;2.60;;;19.70;99.90;;;;;;5021534;28;20032;-72
2022/06/07 07:26:32;;;;;;;7.72;4.43;;;19.70;99.90;;;;;;5021601;28;20042;-73
2022/06/07 07:28:58;;;;;;;5.63;2.60;;;19.80;99.90;;;;;;5024757;28;20037;-73
2022/06/07 07:31:27;;;;;;;6.93;3.10;;;19.90;99.90;;;;;;5024633;28;20022;-73
2022/06/07 07:33:54;;;;;;;6.63;2.60;;;19.90;99.90;;;;;;5027712;28;20088;-73
2022/06/07 07:36:20;;;;;;;2.85;2.40;;;20.00;99.90;;;;;;5028198;28;20034;-73
2022/06/07 07:38:46;;;;;;;3.22;2.20;;;20.10;99.90;;;;;;5029276;28;20030;-74
2022/06/07 07:41:27;;;;;;;4.90;2.25;;;20.10;99.90;;;;;;5014462;28;20025;-73
2022/06/07 07:43:54;;;;;;;3.50;2.00;;;20.10;99.90;;;;;;5033773;28;20025;-73
2022/06/07 07:46:22;;;;;;;4.05;2.33;;;20.10;99.90;;;;;;5015858;28;20178;-73
2022/06/07 07:48:49;;;;;;;4.05;2.33;;;20.00;99.90;;;;;;5007151;28;20049;-73
2022/06/07 07:51:29;;;;;;;6.78;2.72;;;20.00;99.90;;;;;;5035243;28;20022;-73
2022/06/07 07:53:58;;;;;;;7.25;3.10;;;20.10;99.90;;;;;;5031225;28;20027;-73
2022/06/07 07:56:25;;;;;;;6.55;2.50;;;20.30;99.90;;;;;;5032830;28;20024;-73
2022/06/07 07:58:52;;;;;;;6.70;2.70;;;20.50;99.90;;;;;;5019800;28;20474;-73
2022/06/07 08:01:21;;;;;;;3.97;2.10;;;20.70;99.90;;;;;;5015667;28;20042;-73
2022/06/07 08:03:48;;;;;;;2.40;2.00;;;20.80;99.90;;;;;;5016783;28;20022;-73
2022/06/07 08:06:18;;;;;;;2.38;1.80;;;20.70;99.90;;;;;;5014931;28;20021;-73
2022/06/07 08:08:45;;;;;;;3.60;1.80;;;20.90;99.90;;;;;;5037530;28;20109;-73
2022/06/07 08:11:12;;;;;;;6.47;1.83;;;21.00;99.90;;;;;;5018929;28;20456;-73
2022/06/07 08:13:38;;;;;;;4.78;2.38;;;21.20;99.90;;;;;;5027468;28;20030;-73
2022/06/07 08:16:06;;;;;;;5.20;2.28;;;21.30;99.90;;;;;;5027128;28;20022;-73
2022/06/07 08:18:33;;;;;;;5.80;3.00;;;21.20;99.90;;;;;;5020231;28;20105;-73
2022/06/07 08:21:03;;;;;;;6.45;2.47;;;21.00;99.90;;;;;;5023927;28;20584;-73
2022/06/07 08:23:30;;;;;;;5.40;2.50;;;21.00;99.90;;;;;;5022208;28;20052;-73
2022/06/07 08:25:57;;;;;;;6.00;2.45;;;21.00;99.90;;;;;;5017589;28;20045;-73
2022/06/07 08:28:23;;;;;;;8.32;2.55;;;21.00;99.90;;;;;;5007242;28;20030;-73
2022/06/07 08:30:49;;;;;;;3.42;2.40;;;20.90;99.90;;;;;;5012708;28;20033;-73
2022/06/07 08:38:45;;;;;;;4.00;2.40;;;20.90;99.90;;;;;;5032016;28;20118;-73
2022/06/07 08:41:42;;;;;;;2.67;2.30;;;20.80;99.90;;;;;;5035550;28;20026;-73
2022/06/07 08:44:19;;;;;;;7.15;3.05;;;20.70;99.90;;;;;;5006387;28;20037;-73
2022/06/07 08:46:45;;;;;;;5.10;2.35;;;20.60;99.90;;;;;;5004196;28;20025;-73
2022/06/07 08:49:12;;;;;;;4.03;2.50;;;20.50;99.90;;;;;;5018976;28;20038;-73
2022/06/07 08:51:51;;;;;;;6.22;2.83;;;20.40;99.90;;;;;;5009503;28;20367;-74
2022/06/07 08:54:22;;;;;;;3.58;2.55;;;20.40;99.90;;;;;;5018634;28;20025;-73
2022/06/07 08:56:49;;;;;;;5.60;2.85;;;20.30;99.90;;;;;;5032595;28;20029;-73
2022/06/07 08:59:17;;;;;;;8.95;3.15;;;20.20;99.90;;;;;;5005379;28;20068;-73
2022/06/07 09:02:16;;;;;;;3.47;2.35;;;20.20;99.90;;;;;;5034989;28;20025;-74
2022/06/07 09:04:41;;;;;;;7.43;3.00;;;20.10;99.90;;;;;;5034339;28;20072;-73
2022/06/07 09:07:18;;;;;;;5.43;2.85;;;20.10;99.90;;;;;;5018724;28;20022;-73
2022/06/07 09:13:00;;;;;;;5.22;3.17;;;19.90;99.90;;;;;;5021064;28;20081;-75
2022/06/07 09:15:31;;;;;;;3.40;2.20;;;19.80;99.90;;;;;;5025446;28;20030;-74
2022/06/07 09:17:58;;;;;;;;;;;19.80;99.90;;;;;;5021424;28;20078;-73
2022/06/07 09:20:49;;;;;;;3.45;2.50;;;19.80;99.90;;;;;;5021977;28;19948;-73
2022/06/07 09:23:29;;;;;;;6.57;2.95;;;19.90;99.90;;;;;;5024507;28;20018;-74
2022/06/07 09:26:31;;;;;;;6.32;3.30;;;20.00;99.90;;;;;;5035029;28;20029;-74
2022/06/07 09:29:17;;;;;;;6.10;3.58;;;20.10;99.90;;;;;;5006217;28;20038;-74
2022/06/07 09:31:45;;;;;;;8.07;3.58;;;20.00;99.90;;;;;;5011321;28;20088;-73
2022/06/07 09:34:26;;;;;;;6.75;3.40;;;19.90;99.90;;;;;;5034405;28;20029;-73
2022/06/07 09:36:57;;;;;;;5.57;3.33;;;19.90;99.90;;;;;;5015166;28;20501;-74
2022/06/07 09:39:32;;;;;;;9.23;3.67;;;19.90;99.90;;;;;;5015354;28;20079;-73
2022/06/07 09:42:18;;;;;;;6.20;3.42;;;19.90;99.90;;;;;;5036247;28;20018;-74
2022/06/07 09:45:14;;;;;;;10.13;3.00;;;19.90;99.90;;;;;;5021529;28;20026;-73
2022/06/07 09:47:40;;;;;;;4.15;3.05;;;19.90;99.90;;;;;;5004956;28;20037;-73
2022/06/07 09:50:23;;;;;;;9.57;3.10;;;19.90;99.90;;;;;;5033134;28;20101;-73
2022/06/07 09:52:54;;;;;;;7.45;3.03;;;19.90;99.90;;;;;;5026658;28;20063;-73
2022/06/07 09:55:22;;;;;;;8.73;2.92;;;19.90;99.90;;;;;;5023864;28;20037;-73
2022/06/07 09:58:30;;;;;;;6.47;3.65;;;19.90;99.90;;;;;;5011654;28;20018;-73
2022/06/07 10:01:09;;;;;;;6.95;3.20;;;19.90;99.90;;;;;;5032674;28;20025;-73
2022/06/07 10:03:51;;;;;;;7.10;3.75;;;20.10;99.90;;;;;;5028466;28;20037;-73
2022/06/07 10:06:32;;;;;;;8.23;3.65;;;20.30;99.90;;;;;;5038766;28;20112;-74
2022/06/07 10:09:13;;;;;;;;;;;20.60;99.90;;;;;;5030003;28;20018;-73
2022/06/07 10:11:43;;;;;;;8.82;3.28;;;20.80;99.90;;;;;;5022598;28;20377;-74
2022/06/07 10:14:20;;;;;;;4.70;2.77;;;21.00;99.90;;;;;;5007087;28;20036;-73
2022/06/07 10:17:27;;;;;;;8.88;3.10;;;21.20;99.90;;;;;;5014590;28;20088;-73
2022/06/07 10:20:04;;;;;;;6.10;3.13;;;21.20;99.90;;;;;;5016833;28;20048;-74
2022/06/07 10:22:54;;;;;;;6.03;2.53;;;21.20;99.90;;;;;;5029836;28;20026;-75
2022/06/07 10:25:29;;;;;;;7.22;3.38;;;21.00;99.90;;;;;;5010139;28;20022;-73
2022/06/07 10:28:20;;;;;;;6.65;3.22;;;20.70;99.90;;;;;;5016844;28;20105;-74
2022/06/07 10:31:05;;;;;;;8.15;3.10;;;20.60;99.90;;;;;;5034143;28;20425;-74
2022/06/07 10:33:42;;;;;;;8.32;3.08;;;20.50;99.90;;;;;;5034069;28;20080;-73
2022/06/07 10:36:33;;;;;;;4.70;3.47;;;20.40;99.90;;;;;;5020225;28;20026;-74
2022/06/07 10:39:20;;;;;;;;;;;20.40;99.90;;;;;;5020731;28;20683;-73
2022/06/07 10:42:13;;;;;;;5.05;2.55;;;20.20;99.90;;;;;;5038189;28;19909;-73
2022/06/07 10:45:11;;;;;;;7.50;3.25;;;20.10;99.90;;;;;;5031644;28;20469;-73
2022/06/07 10:47:56;;;;;;;7.40;2.85;;;20.10;99.90;;;;;;5003918;28;20468;-73
2022/06/07 10:50:45;;;;;;;6.32;3.28;;;20.10;99.90;;;;;;5011619;28;20076;-73
2022/06/07 10:53:20;;;;;;;6.10;2.60;;;20.20;99.90;;;;;;5027140;28;20052;-73
2022/06/07 10:56:24;;;;;;;6.10;3.17;;;20.40;99.90;;;;;;5029413;28;20018;-73
2022/06/07 10:58:55;;;;;;;4.18;2.55;;;20.40;99.90;;;;;;4934488;29;20059;-73
2022/06/07 11:01:43;;;;;;;5.97;2.40;;;20.50;99.90;;;;;;5021064;28;20030;-73
2022/06/07 11:10:41;;;;;;;6.25;2.60;;;21.40;99.90;;;;;;5032227;28;20104;-72
2022/06/07 11:13:17;;;;;;;7.28;2.55;;;21.60;99.90;;;;;;5031510;28;20046;-72
2022/06/07 11:15:47;;;;;;;4.80;1.85;;;21.80;99.90;;;;;;5010028;28;20056;-72
2022/06/07 11:18:21;;;;;;;5.47;2.60;;;22.00;99.90;;;;;;5021551;28;20025;-72
2022/06/07 11:20:50;;;;;;;5.88;2.85;;;22.10;99.90;;;;;;5024851;28;20108;-74
2022/06/07 11:23:29;;;;;;;5.07;2.72;;;22.20;99.90;;;;;;5023560;28;20105;-74
2022/06/07 11:26:01;;;;;;;8.57;3.10;;;22.00;99.90;;;;;;5029088;28;20021;-74
2022/06/07 11:28:31;;;;;;;8.13;2.45;;;21.80;99.90;;;;;;5007152;28;20438;-74
2022/06/07 11:31:23;;;;;;;7.10;2.60;;;21.60;99.90;;;;;;5031755;28;20036;-72
2022/06/07 11:33:51;;;;;;;4.20;2.00;;;21.60;99.90;;;;;;5030124;28;20056;-72
2022/06/07 11:36:20;;;;;;;7.05;2.55;;;21.70;99.90;;;;;;5031909;28;20021;-72
2022/06/07 11:38:55;;;;;;;7.18;2.58;;;21.70;99.90;;;;;;5038256;28;20394;-73
2022/06/07 11:41:41;;;;;;;4.10;2.13;;;21.90;99.90;;;;;;5035598;28;20025;-72
2022/06/07 11:44:12;;;;;;;11.35;2.72;;;21.90;99.90;;;;;;5026656;28;20014;-72
2022/06/07 11:46:58;;;;;;;4.28;2.40;;;22.10;99.90;;;;;;5029385;28;20471;-73
2022/06/07 11:49:23;;;;;;;5.97;2.67;;;22.20;99.90;;;;;;5024147;28;20042;-73
2022/06/07 11:52:13;;;;;;;4.72;2.30;;;22.10;99.90;;;;;;5029193;28;20517;-73
2022/06/07 11:54:48;;;;;;;7.47;2.25;;;22.30;99.90;;;;;;5027200;28;20100;-73
2022/06/07 11:57:36;;;;;;;10.07;2.75;;;22.30;99.90;;;;;;5032382;28;20030;-73
2022/06/07 12:00:20;;;;;;;5.55;2.90;;;22.50;99.90;;;;;;5015409;28;20040;-73
2022/06/07 12:02:57;;;;;;;8.88;2.45;;;22.80;99.90;;;;;;5032409;28;20132;-73
2022/06/07 12:05:37;;;;;;;9.52;2.28;;;23.20;99.90;;;;;;5036473;28;20125;-74
2022/06/07 12:08:13;;;;;;;4.30;2.42;;;23.50;99.90;;;;;;5018726;28;20112;-74
2022/06/07 12:10:41;;;;;;;7.07;2.42;;;23.40;99.90;;;;;;5037566;28;20393;-73
2022/06/07 12:13:16;;;;;;;4.47;2.40;;;23.50;99.90;;;;;;5003104;28;20022;-73
2022/06/07 12:15:48;;;;;;;6.60;2.60;;;23.50;99.90;;;;;;5028323;28;20025;-74
2022/06/07 12:18:26;;;;;;;8.43;2.38;;;23.80;99.90;;;;;;5005504;28;20030;-73
2022/06/07 12:21:21;;;;;;;6.78;2.47;;;24.00;99.90;;;;;;5026228;28;20032;-74
2022/06/07 12:23:51;;;;;;;7.28;2.05;;;24.30;99.90;;;;;;5002856;28;20034;-73
2022/06/07 12:26:28;;;;;;;7.30;2.20;;;24.40;99.90;;;;;;5029628;28;20021;-76
2022/06/07 12:29:11;;;;;;;6.43;2.40;;;24.30;99.90;;;;;;5028112;28;20406;-73
2022/06/07 12:31:47;;;;;;;6.93;2.30;;;24.00;99.90;;;;;;5029497;28;20025;-74
2022/06/07 12:34:21;;;;;;;11.05;2.92;;;23.70;99.90;;;;;;5024342;28;20079;-74
2022/06/07 12:36:57;;;;;;;5.85;2.30;;;23.40;99.90;;;;;;5031632;28;20544;-74
2022/06/07 12:39:25;;;;;;;6.57;2.72;;;23.10;99.90;;;;;;5035416;28;20025;-74
2022/06/07 12:41:59;;;;;;;7.13;2.30;;;23.10;99.90;;;;;;5035061;28;20045;-75
2022/06/07 12:44:32;;;;;;;4.90;2.55;;;23.10;99.90;;;;;;5036316;28;20021;-74
2022/06/07 12:46:59;;;;;;;4.35;1.95;;;22.90;99.90;;;;;;5023021;28;20013;-75
2022/06/07 12:49:29;;;;;;;5.10;2.10;;;22.80;99.90;;;;;;5020359;28;20072;-74
2022/06/07 12:51:55;;;;;;;8.00;2.45;;;22.80;99.90;;;;;;5024797;28;20036;-74
2022/06/07 12:54:22;;;;;;;5.95;3.90;;;22.90;99.90;;;;;;5022269;28;20034;-74
2022/06/07 12:56:51;;;;;;;9.65;2.85;;;22.90;99.90;;;;;;5010305;28;20041;-74
2022/06/07 12:59:22;;;;;;;5.00;2.50;;;22.90;99.90;;;;;;5024084;28;20441;-75
2022/06/07 13:01:51;;;;;;;3.95;2.40;;;22.90;99.90;;;;;;5006303;28;20045;-74
2022/06/07 13:04:25;;;;;;;7.93;2.88;;;22.90;99.90;;;;;;5027181;28;20033;-74
2022/06/07 13:07:01;;;;;;;4.35;2.78;;;22.80;99.90;;;;;;5034803;28;20017;-75
2022/06/07 13:09:27;;;;;;;7.40;2.83;;;22.50;99.90;;;;;;5018169;28;20025;-74
2022/06/07 13:11:56;;;;;;;8.55;3.03;;;22.30;99.90;;;;;;5030497;28;20107;-74
2022/06/07 13:14:22;;;;;;;5.47;2.67;;;22.30;99.90;;;;;;5026575;28;20056;-74
2022/06/07 13:16:49;;;;;;;4.30;2.60;;;22.50;99.90;;;;;;5035311;28;20030;-75
2022/06/07 13:19:14;;;;;;;6.25;2.65;;;22.60;99.90;;;;;;5035793;28;20109;-73
2022/06/07 13:22:02;;;;;;;9.68;3.10;;;22.70;99.90;;;;;;5027315;28;20037;-75
2022/06/07 13:24:47;;;;;;;5.80;2.72;;;22.90;99.90;;;;;;5013371;28;20022;-74
2022/06/07 13:27:36;;;;;;;5.47;2.70;;;23.30;99.90;;;;;;5021601;28;20096;-75
2022/06/07 13:30:03;;;;;;;7.15;2.45;;;23.20;99.90;;;;;;5021101;28;20022;-76
2022/06/07 13:32:29;;;;;;;8.02;2.83;;;23.30;99.90;;;;;;5026289;28;20017;-74